sensor_id;sensor_type;location;lat;lon;timestamp;P1;durP1;ratioP1;P2;durP2;ratioP2
9986;SDS011;5033;46.310;11.214;2022-12-10T00:01:53;5.00;;;4.70;;
9986;SDS011;5033;46.310;11.214;2022-12-10T00:04:20;5.20;;;4.80;;
9986;SDS011;5033;46.310;11.214;2022-12-10T00:06:48;4.70;;;4.47;;
9986;SDS011;5033;46.310;11.214;2022-12-10T00:09:16;5.78;;;5.38;;
9986;SDS011;5033;46.310;11.214;2022-12-10T00:11:44;5.43;;;5.13;;
9986;SDS011;5033;46.310;11.214;2022-12-10T00:14:12;5.45;;;5.05;;
9986;SDS011;5033;46.310;11.214;2022-12-10T00:16:40;5.65;;;5.25;;
9986;SDS011;5033;46.310;11.214;2022-12-10T00:19:09;6.07;;;5.60;;
9986;SDS011;5033;46.310;11.214;2022-12-10T00:21:36;5.70;;;5.30;;
9986;SDS011;5033;46.310;11.214;2022-12-10T00:24:04;6.20;;;5.80;;
9986;SDS011;5033;46.310;11.214;2022-12-10T00:26:33;6.00;;;5.60;;
9986;SDS011;5033;46.310;11.214;2022-12-10T00:29:03;6.15;;;5.72;;
9986;SDS011;5033;46.310;11.214;2022-12-10T00:31:32;5.78;;;5.38;;
9986;SDS011;5033;46.310;11.214;2022-12-10T00:34:03;6.40;;;5.88;;
9986;SDS011;5033;46.310;11.214;2022-12-10T00:36:33;5.57;;;5.18;;
9986;SDS011;5033;46.310;11.214;2022-12-10T00:39:02;6.55;;;6.05;;
9986;SDS011;5033;46.310;11.214;2022-12-10T00:41:31;6.47;;;5.97;;
9986;SDS011;5033;46.310;11.214;2022-12-10T00:43:59;6.40;;;5.90;;
9986;SDS011;5033;46.310;11.214;2022-12-10T00:46:26;5.63;;;5.22;;
9986;SDS011;5033;46.310;11.214;2022-12-10T00:48:54;6.47;;;5.97;;
9986;SDS011;5033;46.310;11.214;2022-12-10T00:51:23;5.72;;;5.32;;
9986;SDS011;5033;46.310;11.214;2022-12-10T00:53:53;5.90;;;5.50;;
9986;SDS011;5033;46.310;11.214;2022-12-10T00:56:22;6.30;;;5.70;;
9986;SDS011;5033;46.310;11.214;2022-12-10T00:58:51;6.72;;;6.22;;
9986;SDS011;5033;46.310;11.214;2022-12-10T01:01:20;7.38;;;6.68;;
9986;SDS011;5033;46.310;11.214;2022-12-10T01:03:49;7.35;;;6.75;;
9986;SDS011;5033;46.310;11.214;2022-12-10T01:06:19;6.32;;;5.82;;
9986;SDS011;5033;46.310;11.214;2022-12-10T01:08:48;5.90;;;5.50;;
9986;SDS011;5033;46.310;11.214;2022-12-10T01:11:18;6.00;;;5.57;;
9986;SDS011;5033;46.310;11.214;2022-12-10T01:13:47;6.97;;;6.38;;
9986;SDS011;5033;46.310;11.214;2022-12-10T01:16:17;7.30;;;6.78;;
9986;SDS011;5033;46.310;11.214;2022-12-10T01:18:47;7.75;;;7.05;;
9986;SDS011;5033;46.310;11.214;2022-12-10T01:21:15;10.75;;;9.07;;
9986;SDS011;5033;46.310;11.214;2022-12-10T01:23:45;11.77;;;9.98;;
9986;SDS011;5033;46.310;11.214;2022-12-10T01:26:14;10.85;;;9.85;;
9986;SDS011;5033;46.310;11.214;2022-12-10T01:28:45;11.10;;;10.02;;
9986;SDS011;5033;46.310;11.214;2022-12-10T01:31:13;10.63;;;9.63;;
9986;SDS011;5033;46.310;11.214;2022-12-10T01:33:43;9.60;;;8.80;;
9986;SDS011;5033;46.310;11.214;2022-12-10T01:36:11;9.35;;;8.48;;
9986;SDS011;5033;46.310;11.214;2022-12-10T01:38:40;9.40;;;8.50;;
9986;SDS011;5033;46.310;11.214;2022-12-10T01:41:12;9.25;;;8.35;;
9986;SDS011;5033;46.310;11.214;2022-12-10T01:47:11;8.23;;;7.53;;
9986;SDS011;5033;46.310;11.214;2022-12-10T01:49:39;7.85;;;7.25;;
9986;SDS011;5033;46.310;11.214;2022-12-10T01:52:08;9.15;;;8.38;;
9986;SDS011;5033;46.310;11.214;2022-12-10T01:54:37;8.88;;;8.18;;
9986;SDS011;5033;46.310;11.214;2022-12-10T01:57:07;8.40;;;7.70;;
9986;SDS011;5033;46.310;11.214;2022-12-10T01:59:39;7.90;;;7.30;;
9986;SDS011;5033;46.310;11.214;2022-12-10T02:02:10;7.68;;;7.07;;
9986;SDS011;5033;46.310;11.214;2022-12-10T02:04:47;7.63;;;6.93;;
9986;SDS011;5033;46.310;11.214;2022-12-10T02:07:24;7.55;;;7.00;;
9986;SDS011;5033;46.310;11.214;2022-12-10T02:10:02;6.53;;;6.03;;
9986;SDS011;5033;46.310;11.214;2022-12-10T02:12:34;6.28;;;5.78;;
9986;SDS011;5033;46.310;11.214;2022-12-10T02:15:15;20.13;;;7.88;;
9986;SDS011;5033;46.310;11.214;2022-12-10T02:17:46;8.65;;;7.95;;
9986;SDS011;5033;46.310;11.214;2022-12-10T02:20:17;8.82;;;8.10;;
9986;SDS011;5033;46.310;11.214;2022-12-10T02:22:48;7.88;;;7.28;;
9986;SDS011;5033;46.310;11.214;2022-12-10T02:25:19;7.90;;;7.30;;
9986;SDS011;5033;46.310;11.214;2022-12-10T02:27:52;8.00;;;7.30;;
9986;SDS011;5033;46.310;11.214;2022-12-10T02:30:27;7.72;;;7.13;;
9986;SDS011;5033;46.310;11.214;2022-12-10T02:32:58;6.65;;;6.15;;
9986;SDS011;5033;46.310;11.214;2022-12-10T02:35:28;7.28;;;6.78;;
9986;SDS011;5033;46.310;11.214;2022-12-10T02:38:00;7.10;;;6.60;;
9986;SDS011;5033;46.310;11.214;2022-12-10T02:40:31;6.93;;;6.43;;
9986;SDS011;5033;46.310;11.214;2022-12-10T02:43:02;7.00;;;6.50;;
9986;SDS011;5033;46.310;11.214;2022-12-10T02:45:31;6.82;;;6.32;;
9986;SDS011;5033;46.310;11.214;2022-12-10T02:48:00;6.63;;;6.10;;
9986;SDS011;5033;46.310;11.214;2022-12-10T02:50:29;7.20;;;6.60;;
9986;SDS011;5033;46.310;11.214;2022-12-10T02:52:56;6.93;;;6.43;;
9986;SDS011;5033;46.310;11.214;2022-12-10T02:55:24;7.03;;;6.43;;
9986;SDS011;5033;46.310;11.214;2022-12-10T02:58:03;6.45;;;6.05;;
9986;SDS011;5033;46.310;11.214;2022-12-10T03:00:37;6.40;;;5.95;;
9986;SDS011;5033;46.310;11.214;2022-12-10T03:03:19;6.68;;;6.18;;
9986;SDS011;5033;46.310;11.214;2022-12-10T03:05:56;6.35;;;5.95;;
9986;SDS011;5033;46.310;11.214;2022-12-10T03:08:31;6.28;;;5.88;;
9986;SDS011;5033;46.310;11.214;2022-12-10T03:11:04;5.97;;;5.57;;
9986;SDS011;5033;46.310;11.214;2022-12-10T03:13:38;6.55;;;6.15;;
9986;SDS011;5033;46.310;11.214;2022-12-10T03:16:10;6.25;;;5.85;;
9986;SDS011;5033;46.310;11.214;2022-12-10T03:18:39;6.78;;;6.28;;
9986;SDS011;5033;46.310;11.214;2022-12-10T03:21:07;5.68;;;5.28;;
9986;SDS011;5033;46.310;11.214;2022-12-10T03:23:36;6.22;;;5.72;;
9986;SDS011;5033;46.310;11.214;2022-12-10T03:26:07;6.07;;;5.68;;
9986;SDS011;5033;46.310;11.214;2022-12-10T03:28:37;6.68;;;6.05;;
9986;SDS011;5033;46.310;11.214;2022-12-10T03:31:07;6.13;;;5.72;;
9986;SDS011;5033;46.310;11.214;2022-12-10T03:33:38;7.00;;;6.50;;
9986;SDS011;5033;46.310;11.214;2022-12-10T03:36:06;5.63;;;5.22;;
9986;SDS011;5033;46.310;11.214;2022-12-10T03:38:34;6.63;;;6.22;;
9986;SDS011;5033;46.310;11.214;2022-12-10T03:41:03;6.78;;;6.28;;
9986;SDS011;5033;46.310;11.214;2022-12-10T03:43:31;6.57;;;6.07;;
9986;SDS011;5033;46.310;11.214;2022-12-10T03:45:58;6.35;;;5.93;;
9986;SDS011;5033;46.310;11.214;2022-12-10T03:48:25;6.80;;;6.32;;
9986;SDS011;5033;46.310;11.214;2022-12-10T03:50:55;6.78;;;6.38;;
9986;SDS011;5033;46.310;11.214;2022-12-10T03:53:22;6.00;;;5.60;;
9986;SDS011;5033;46.310;11.214;2022-12-10T03:55:49;5.88;;;5.53;;
9986;SDS011;5033;46.310;11.214;2022-12-10T03:58:16;6.65;;;6.05;;
9986;SDS011;5033;46.310;11.214;2022-12-10T04:00:44;6.38;;;5.97;;
9986;SDS011;5033;46.310;11.214;2022-12-10T04:03:11;7.07;;;6.57;;
9986;SDS011;5033;46.310;11.214;2022-12-10T04:05:39;6.20;;;5.80;;
9986;SDS011;5033;46.310;11.214;2022-12-10T04:08:08;6.82;;;6.32;;
9986;SDS011;5033;46.310;11.214;2022-12-10T04:10:35;6.78;;;6.28;;
9986;SDS011;5033;46.310;11.214;2022-12-10T04:13:03;7.68;;;7.07;;
9986;SDS011;5033;46.310;11.214;2022-12-10T04:15:47;7.57;;;7.07;;
9986;SDS011;5033;46.310;11.214;2022-12-10T04:18:32;6.60;;;6.10;;
9986;SDS011;5033;46.310;11.214;2022-12-10T04:21:00;7.55;;;6.90;;
9986;SDS011;5033;46.310;11.214;2022-12-10T04:23:46;7.43;;;6.85;;
9986;SDS011;5033;46.310;11.214;2022-12-10T04:26:31;6.53;;;6.13;;
9986;SDS011;5033;46.310;11.214;2022-12-10T04:29:16;6.32;;;5.88;;
9986;SDS011;5033;46.310;11.214;2022-12-10T04:31:44;6.57;;;6.07;;
9986;SDS011;5033;46.310;11.214;2022-12-10T04:34:12;6.72;;;6.32;;
9986;SDS011;5033;46.310;11.214;2022-12-10T04:36:39;6.05;;;5.65;;
9986;SDS011;5033;46.310;11.214;2022-12-10T04:39:08;6.32;;;5.93;;
9986;SDS011;5033;46.310;11.214;2022-12-10T04:41:37;7.07;;;6.57;;
9986;SDS011;5033;46.310;11.214;2022-12-10T04:44:05;6.38;;;5.95;;
9986;SDS011;5033;46.310;11.214;2022-12-10T04:46:32;5.60;;;5.20;;
9986;SDS011;5033;46.310;11.214;2022-12-10T04:49:00;5.50;;;5.20;;
9986;SDS011;5033;46.310;11.214;2022-12-10T04:51:30;5.30;;;4.95;;
9986;SDS011;5033;46.310;11.214;2022-12-10T04:53:58;5.10;;;4.80;;
9986;SDS011;5033;46.310;11.214;2022-12-10T04:56:27;5.43;;;5.13;;
9986;SDS011;5033;46.310;11.214;2022-12-10T04:58:55;5.45;;;5.05;;
9986;SDS011;5033;46.310;11.214;2022-12-10T05:01:23;5.57;;;5.18;;
9986;SDS011;5033;46.310;11.214;2022-12-10T05:03:50;6.00;;;5.60;;
9986;SDS011;5033;46.310;11.214;2022-12-10T05:06:18;5.53;;;5.22;;
9986;SDS011;5033;46.310;11.214;2022-12-10T05:08:46;5.90;;;5.50;;
9986;SDS011;5033;46.310;11.214;2022-12-10T05:11:14;5.30;;;5.00;;
9986;SDS011;5033;46.310;11.214;2022-12-10T05:13:45;5.45;;;5.05;;
9986;SDS011;5033;46.310;11.214;2022-12-10T05:16:13;5.45;;;5.15;;
9986;SDS011;5033;46.310;11.214;2022-12-10T05:18:42;5.32;;;5.03;;
9986;SDS011;5033;46.310;11.214;2022-12-10T05:21:10;5.60;;;5.20;;
9986;SDS011;5033;46.310;11.214;2022-12-10T05:23:39;6.18;;;5.78;;
9986;SDS011;5033;46.310;11.214;2022-12-10T05:26:07;5.28;;;4.97;;
9986;SDS011;5033;46.310;11.214;2022-12-10T05:28:36;6.72;;;6.22;;
9986;SDS011;5033;46.310;11.214;2022-12-10T05:31:10;5.88;;;5.47;;
9986;SDS011;5033;46.310;11.214;2022-12-10T05:33:38;6.88;;;6.28;;
9986;SDS011;5033;46.310;11.214;2022-12-10T05:36:06;6.40;;;6.00;;
9986;SDS011;5033;46.310;11.214;2022-12-10T05:38:35;6.40;;;5.97;;
9986;SDS011;5033;46.310;11.214;2022-12-10T05:41:03;5.80;;;5.40;;
9986;SDS011;5033;46.310;11.214;2022-12-10T05:43:32;6.25;;;5.85;;
9986;SDS011;5033;46.310;11.214;2022-12-10T05:45:59;6.55;;;6.07;;
9986;SDS011;5033;46.310;11.214;2022-12-10T05:48:29;5.95;;;5.55;;
9986;SDS011;5033;46.310;11.214;2022-12-10T05:50:56;6.10;;;5.70;;
9986;SDS011;5033;46.310;11.214;2022-12-10T05:53:24;5.28;;;4.88;;
9986;SDS011;5033;46.310;11.214;2022-12-10T05:55:58;5.93;;;5.43;;
9986;SDS011;5033;46.310;11.214;2022-12-10T05:58:26;5.78;;;5.38;;
9986;SDS011;5033;46.310;11.214;2022-12-10T06:00:54;5.43;;;5.03;;
9986;SDS011;5033;46.310;11.214;2022-12-10T06:03:21;6.00;;;5.60;;
9986;SDS011;5033;46.310;11.214;2022-12-10T06:05:50;5.72;;;5.32;;
9986;SDS011;5033;46.310;11.214;2022-12-10T06:08:18;6.13;;;5.63;;
9986;SDS011;5033;46.310;11.214;2022-12-10T06:10:46;5.90;;;5.40;;
9986;SDS011;5033;46.310;11.214;2022-12-10T06:13:13;6.10;;;5.60;;
9986;SDS011;5033;46.310;11.214;2022-12-10T06:15:40;5.97;;;5.53;;
9986;SDS011;5033;46.310;11.214;2022-12-10T06:18:09;7.35;;;6.85;;
9986;SDS011;5033;46.310;11.214;2022-12-10T06:20:37;7.45;;;6.85;;
9986;SDS011;5033;46.310;11.214;2022-12-10T06:23:07;6.90;;;6.30;;
9986;SDS011;5033;46.310;11.214;2022-12-10T06:25:37;7.32;;;6.82;;
9986;SDS011;5033;46.310;11.214;2022-12-10T06:28:04;7.18;;;6.57;;
9986;SDS011;5033;46.310;11.214;2022-12-10T06:30:32;7.35;;;6.75;;
9986;SDS011;5033;46.310;11.214;2022-12-10T06:33:00;7.28;;;6.57;;
9986;SDS011;5033;46.310;11.214;2022-12-10T06:35:27;6.78;;;6.18;;
9986;SDS011;5033;46.310;11.214;2022-12-10T06:37:55;6.97;;;6.38;;
9986;SDS011;5033;46.310;11.214;2022-12-10T06:40:23;7.28;;;6.68;;
9986;SDS011;5033;46.310;11.214;2022-12-10T06:42:51;8.25;;;7.40;;
9986;SDS011;5033;46.310;11.214;2022-12-10T06:45:18;7.70;;;7.00;;
9986;SDS011;5033;46.310;11.214;2022-12-10T06:47:45;6.78;;;6.28;;
9986;SDS011;5033;46.310;11.214;2022-12-10T06:50:13;7.95;;;7.25;;
9986;SDS011;5033;46.310;11.214;2022-12-10T06:52:40;7.45;;;6.88;;
9986;SDS011;5033;46.310;11.214;2022-12-10T06:55:08;7.05;;;6.45;;
9986;SDS011;5033;46.310;11.214;2022-12-10T06:57:36;7.15;;;6.55;;
9986;SDS011;5033;46.310;11.214;2022-12-10T07:00:04;7.10;;;6.50;;
9986;SDS011;5033;46.310;11.214;2022-12-10T07:02:32;7.00;;;6.47;;
9986;SDS011;5033;46.310;11.214;2022-12-10T07:05:00;7.20;;;6.60;;
9986;SDS011;5033;46.310;11.214;2022-12-10T07:07:27;7.57;;;6.97;;
9986;SDS011;5033;46.310;11.214;2022-12-10T07:09:55;8.98;;;7.88;;
9986;SDS011;5033;46.310;11.214;2022-12-10T07:12:22;7.53;;;6.93;;
9986;SDS011;5033;46.310;11.214;2022-12-10T07:14:51;7.30;;;6.70;;
9986;SDS011;5033;46.310;11.214;2022-12-10T07:17:18;7.25;;;6.65;;
9986;SDS011;5033;46.310;11.214;2022-12-10T07:19:45;6.63;;;6.13;;
9986;SDS011;5033;46.310;11.214;2022-12-10T07:22:13;6.50;;;6.00;;
9986;SDS011;5033;46.310;11.214;2022-12-10T07:24:40;7.55;;;6.95;;
9986;SDS011;5033;46.310;11.214;2022-12-10T07:27:08;7.85;;;7.20;;
9986;SDS011;5033;46.310;11.214;2022-12-10T07:29:35;7.05;;;6.55;;
9986;SDS011;5033;46.310;11.214;2022-12-10T07:32:04;7.78;;;7.15;;
9986;SDS011;5033;46.310;11.214;2022-12-10T07:34:32;7.13;;;6.63;;
9986;SDS011;5033;46.310;11.214;2022-12-10T07:36:59;9.25;;;8.50;;
9986;SDS011;5033;46.310;11.214;2022-12-10T07:39:26;7.50;;;6.90;;
9986;SDS011;5033;46.310;11.214;2022-12-10T07:41:53;9.25;;;8.38;;
9986;SDS011;5033;46.310;11.214;2022-12-10T07:44:21;8.80;;;8.07;;
9986;SDS011;5033;46.310;11.214;2022-12-10T07:46:52;8.25;;;7.55;;
9986;SDS011;5033;46.310;11.214;2022-12-10T07:49:22;9.40;;;8.55;;
9986;SDS011;5033;46.310;11.214;2022-12-10T07:51:50;10.15;;;9.23;;
9986;SDS011;5033;46.310;11.214;2022-12-10T07:54:17;10.95;;;9.95;;
9986;SDS011;5033;46.310;11.214;2022-12-10T07:56:45;9.90;;;9.00;;
9986;SDS011;5033;46.310;11.214;2022-12-10T07:59:12;9.65;;;8.85;;
9986;SDS011;5033;46.310;11.214;2022-12-10T08:01:39;9.55;;;8.65;;
9986;SDS011;5033;46.310;11.214;2022-12-10T08:04:07;9.52;;;8.70;;
9986;SDS011;5033;46.310;11.214;2022-12-10T08:06:35;9.63;;;8.82;;
9986;SDS011;5033;46.310;11.214;2022-12-10T08:09:02;8.85;;;8.15;;
9986;SDS011;5033;46.310;11.214;2022-12-10T08:11:29;8.57;;;7.88;;
9986;SDS011;5033;46.310;11.214;2022-12-10T08:13:57;8.95;;;8.25;;
9986;SDS011;5033;46.310;11.214;2022-12-10T08:16:26;8.15;;;7.55;;
9986;SDS011;5033;46.310;11.214;2022-12-10T08:18:56;7.97;;;7.28;;
9986;SDS011;5033;46.310;11.214;2022-12-10T08:21:26;8.70;;;8.10;;
9986;SDS011;5033;46.310;11.214;2022-12-10T08:23:56;8.25;;;7.57;;
9986;SDS011;5033;46.310;11.214;2022-12-10T08:26:26;7.30;;;6.80;;
9986;SDS011;5033;46.310;11.214;2022-12-10T08:28:54;7.70;;;7.10;;
9986;SDS011;5033;46.310;11.214;2022-12-10T08:31:23;7.82;;;7.22;;
9986;SDS011;5033;46.310;11.214;2022-12-10T08:33:52;8.38;;;7.78;;
9986;SDS011;5033;46.310;11.214;2022-12-10T08:36:20;7.80;;;7.20;;
9986;SDS011;5033;46.310;11.214;2022-12-10T08:38:47;7.53;;;7.00;;
9986;SDS011;5033;46.310;11.214;2022-12-10T08:41:17;7.78;;;7.05;;
9986;SDS011;5033;46.310;11.214;2022-12-10T08:43:46;8.60;;;7.88;;
9986;SDS011;5033;46.310;11.214;2022-12-10T08:46:15;8.95;;;8.25;;
9986;SDS011;5033;46.310;11.214;2022-12-10T08:48:42;8.60;;;7.90;;
9986;SDS011;5033;46.310;11.214;2022-12-10T08:51:11;9.55;;;8.82;;
9986;SDS011;5033;46.310;11.214;2022-12-10T08:53:43;9.18;;;8.38;;
9986;SDS011;5033;46.310;11.214;2022-12-10T08:56:10;9.25;;;8.48;;
9986;SDS011;5033;46.310;11.214;2022-12-10T08:58:40;7.75;;;7.20;;
9986;SDS011;5033;46.310;11.214;2022-12-10T09:01:08;8.30;;;7.70;;
9986;SDS011;5033;46.310;11.214;2022-12-10T09:03:36;7.40;;;6.90;;
9986;SDS011;5033;46.310;11.214;2022-12-10T09:06:05;7.65;;;7.03;;
9986;SDS011;5033;46.310;11.214;2022-12-10T09:08:33;7.93;;;7.28;;
9986;SDS011;5033;46.310;11.214;2022-12-10T09:11:04;9.80;;;8.90;;
9986;SDS011;5033;46.310;11.214;2022-12-10T09:13:33;10.45;;;9.55;;
9986;SDS011;5033;46.310;11.214;2022-12-10T09:16:02;9.40;;;8.70;;
9986;SDS011;5033;46.310;11.214;2022-12-10T09:18:30;9.52;;;8.73;;
9986;SDS011;5033;46.310;11.214;2022-12-10T09:20:57;8.23;;;7.53;;
9986;SDS011;5033;46.310;11.214;2022-12-10T09:23:25;7.65;;;7.05;;
9986;SDS011;5033;46.310;11.214;2022-12-10T09:25:52;7.97;;;7.45;;
9986;SDS011;5033;46.310;11.214;2022-12-10T09:28:19;9.88;;;8.98;;
9986;SDS011;5033;46.310;11.214;2022-12-10T09:30:54;9.68;;;8.88;;
9986;SDS011;5033;46.310;11.214;2022-12-10T09:33:23;9.45;;;8.55;;
9986;SDS011;5033;46.310;11.214;2022-12-10T09:35:51;9.15;;;8.45;;
9986;SDS011;5033;46.310;11.214;2022-12-10T09:38:18;8.00;;;7.40;;
9986;SDS011;5033;46.310;11.214;2022-12-10T09:40:46;7.75;;;7.07;;
9986;SDS011;5033;46.310;11.214;2022-12-10T09:43:19;9.65;;;8.75;;
9986;SDS011;5033;46.310;11.214;2022-12-10T09:45:58;10.90;;;9.80;;
9986;SDS011;5033;46.310;11.214;2022-12-10T09:48:34;10.43;;;9.40;;
9986;SDS011;5033;46.310;11.214;2022-12-10T09:51:16;11.50;;;10.40;;
9986;SDS011;5033;46.310;11.214;2022-12-10T09:53:47;10.25;;;9.30;;
9986;SDS011;5033;46.310;11.214;2022-12-10T09:56:23;9.80;;;8.90;;
9986;SDS011;5033;46.310;11.214;2022-12-10T09:58:57;10.13;;;9.23;;
9986;SDS011;5033;46.310;11.214;2022-12-10T10:01:27;10.07;;;9.18;;
9986;SDS011;5033;46.310;11.214;2022-12-10T10:04:00;10.45;;;9.50;;
9986;SDS011;5033;46.310;11.214;2022-12-10T10:06:30;10.40;;;9.43;;
9986;SDS011;5033;46.310;11.214;2022-12-10T10:08:58;10.73;;;9.73;;
9986;SDS011;5033;46.310;11.214;2022-12-10T10:11:31;12.52;;;11.32;;
9986;SDS011;5033;46.310;11.214;2022-12-10T10:14:03;11.82;;;10.63;;
9986;SDS011;5033;46.310;11.214;2022-12-10T10:16:34;10.50;;;9.43;;
9986;SDS011;5033;46.310;11.214;2022-12-10T10:19:11;10.30;;;9.32;;
9986;SDS011;5033;46.310;11.214;2022-12-10T10:21:41;10.23;;;9.32;;
9986;SDS011;5033;46.310;11.214;2022-12-10T10:24:12;10.20;;;9.30;;
9986;SDS011;5033;46.310;11.214;2022-12-10T10:26:42;10.43;;;9.48;;
9986;SDS011;5033;46.310;11.214;2022-12-10T10:29:13;11.65;;;10.57;;
9986;SDS011;5033;46.310;11.214;2022-12-10T10:31:44;10.35;;;9.52;;
9986;SDS011;5033;46.310;11.214;2022-12-10T10:34:15;9.95;;;9.15;;
9986;SDS011;5033;46.310;11.214;2022-12-10T10:36:46;11.40;;;10.32;;
9986;SDS011;5033;46.310;11.214;2022-12-10T10:39:23;11.27;;;10.23;;
9986;SDS011;5033;46.310;11.214;2022-12-10T10:41:54;11.88;;;10.88;;
9986;SDS011;5033;46.310;11.214;2022-12-10T10:44:25;12.02;;;10.93;;
9986;SDS011;5033;46.310;11.214;2022-12-10T10:46:55;11.73;;;10.73;;
9986;SDS011;5033;46.310;11.214;2022-12-10T10:49:25;11.40;;;10.40;;
9986;SDS011;5033;46.310;11.214;2022-12-10T10:51:54;14.13;;;12.88;;
9986;SDS011;5033;46.310;11.214;2022-12-10T10:54:32;13.55;;;12.35;;
9986;SDS011;5033;46.310;11.214;2022-12-10T10:57:01;16.30;;;14.68;;
9986;SDS011;5033;46.310;11.214;2022-12-10T10:59:35;17.77;;;15.95;;
9986;SDS011;5033;46.310;11.214;2022-12-10T11:02:04;19.67;;;17.77;;
9986;SDS011;5033;46.310;11.214;2022-12-10T11:04:46;16.85;;;15.35;;
9986;SDS011;5033;46.310;11.214;2022-12-10T11:07:19;16.10;;;14.43;;
9986;SDS011;5033;46.310;11.214;2022-12-10T11:09:51;13.80;;;12.50;;
9986;SDS011;5033;46.310;11.214;2022-12-10T11:15:27;15.48;;;14.13;;
9986;SDS011;5033;46.310;11.214;2022-12-10T11:17:57;12.90;;;11.80;;
9986;SDS011;5033;46.310;11.214;2022-12-10T11:20:27;13.65;;;12.35;;
9986;SDS011;5033;46.310;11.214;2022-12-10T11:22:57;14.05;;;12.75;;
9986;SDS011;5033;46.310;11.214;2022-12-10T11:25:30;14.18;;;12.85;;
9986;SDS011;5033;46.310;11.214;2022-12-10T11:28:08;13.35;;;12.15;;
9986;SDS011;5033;46.310;11.214;2022-12-10T11:30:48;13.40;;;12.13;;
9986;SDS011;5033;46.310;11.214;2022-12-10T11:33:21;13.55;;;12.30;;
9986;SDS011;5033;46.310;11.214;2022-12-10T11:35:57;13.60;;;12.40;;
9986;SDS011;5033;46.310;11.214;2022-12-10T11:38:29;13.68;;;12.48;;
9986;SDS011;5033;46.310;11.214;2022-12-10T11:41:01;12.43;;;11.43;;
9986;SDS011;5033;46.310;11.214;2022-12-10T11:46:43;15.23;;;13.73;;
9986;SDS011;5033;46.310;11.214;2022-12-10T11:49:34;17.55;;;15.75;;
9986;SDS011;5033;46.310;11.214;2022-12-10T11:52:15;17.95;;;16.15;;
9986;SDS011;5033;46.310;11.214;2022-12-10T11:54:53;16.75;;;15.15;;
9986;SDS011;5033;46.310;11.214;2022-12-10T11:57:30;16.88;;;15.20;;
9986;SDS011;5033;46.310;11.214;2022-12-10T12:00:14;16.38;;;14.90;;
9986;SDS011;5033;46.310;11.214;2022-12-10T12:05:48;14.88;;;13.57;;
9986;SDS011;5033;46.310;11.214;2022-12-10T12:08:28;16.20;;;14.70;;
9986;SDS011;5033;46.310;11.214;2022-12-10T12:11:11;15.63;;;14.23;;
9986;SDS011;5033;46.310;11.214;2022-12-10T12:13:51;12.82;;;11.73;;
9986;SDS011;5033;46.310;11.214;2022-12-10T12:16:25;12.88;;;11.60;;
9986;SDS011;5033;46.310;11.214;2022-12-10T12:18:57;13.18;;;11.88;;
9986;SDS011;5033;46.310;11.214;2022-12-10T12:21:28;12.57;;;11.38;;
9986;SDS011;5033;46.310;11.214;2022-12-10T12:23:58;10.95;;;10.02;;
9986;SDS011;5033;46.310;11.214;2022-12-10T12:26:29;11.65;;;10.57;;
9986;SDS011;5033;46.310;11.214;2022-12-10T12:29:08;13.93;;;12.63;;
9986;SDS011;5033;46.310;11.214;2022-12-10T12:31:43;12.52;;;11.43;;
9986;SDS011;5033;46.310;11.214;2022-12-10T12:34:16;11.70;;;10.80;;
9986;SDS011;5033;46.310;11.214;2022-12-10T12:36:47;15.95;;;14.50;;
9986;SDS011;5033;46.310;11.214;2022-12-10T12:39:19;12.27;;;11.18;;
9986;SDS011;5033;46.310;11.214;2022-12-10T12:41:57;12.85;;;11.82;;
9986;SDS011;5033;46.310;11.214;2022-12-10T12:44:30;12.02;;;10.93;;
9986;SDS011;5033;46.310;11.214;2022-12-10T12:47:11;11.05;;;10.15;;
9986;SDS011;5033;46.310;11.214;2022-12-10T12:49:48;11.30;;;10.25;;
9986;SDS011;5033;46.310;11.214;2022-12-10T12:52:19;10.98;;;10.00;;
9986;SDS011;5033;46.310;11.214;2022-12-10T12:54:56;12.13;;;11.02;;
9986;SDS011;5033;46.310;11.214;2022-12-10T12:57:28;11.57;;;10.55;;
9986;SDS011;5033;46.310;11.214;2022-12-10T13:00:03;11.98;;;10.98;;
9986;SDS011;5033;46.310;11.214;2022-12-10T13:02:46;12.80;;;11.55;;
9986;SDS011;5033;46.310;11.214;2022-12-10T13:05:24;13.25;;;12.05;;
9986;SDS011;5033;46.310;11.214;2022-12-10T13:10:56;12.98;;;11.88;;
9986;SDS011;5033;46.310;11.214;2022-12-10T13:13:28;12.05;;;11.00;;
9986;SDS011;5033;46.310;11.214;2022-12-10T13:19:07;11.93;;;10.82;;
9986;SDS011;5033;46.310;11.214;2022-12-10T13:22:01;12.10;;;10.98;;
9986;SDS011;5033;46.310;11.214;2022-12-10T13:27:37;13.07;;;11.82;;
9986;SDS011;5033;46.310;11.214;2022-12-10T13:30:26;20.38;;;18.15;;
9986;SDS011;5033;46.310;11.214;2022-12-10T13:33:03;19.05;;;16.73;;
9986;SDS011;5033;46.310;11.214;2022-12-10T13:35:50;15.57;;;13.98;;
9986;SDS011;5033;46.310;11.214;2022-12-10T13:38:24;15.73;;;14.18;;
9986;SDS011;5033;46.310;11.214;2022-12-10T13:40:57;15.80;;;14.07;;
9986;SDS011;5033;46.310;11.214;2022-12-10T13:46:59;21.73;;;19.45;;
9986;SDS011;5033;46.310;11.214;2022-12-10T13:49:32;17.85;;;16.15;;
9986;SDS011;5033;46.310;11.214;2022-12-10T13:52:13;20.85;;;18.75;;
9986;SDS011;5033;46.310;11.214;2022-12-10T13:57:42;17.50;;;15.55;;
9986;SDS011;5033;46.310;11.214;2022-12-10T14:00:29;17.80;;;14.52;;
9986;SDS011;5033;46.310;11.214;2022-12-10T14:06:12;13.75;;;12.45;;
9986;SDS011;5033;46.310;11.214;2022-12-10T14:08:44;28.10;;;24.52;;
9986;SDS011;5033;46.310;11.214;2022-12-10T14:11:30;18.98;;;16.98;;
9986;SDS011;5033;46.310;11.214;2022-12-10T14:13:59;15.65;;;14.05;;
9986;SDS011;5033;46.310;11.214;2022-12-10T14:16:29;14.32;;;12.98;;
9986;SDS011;5033;46.310;11.214;2022-12-10T14:19:01;13.60;;;12.30;;
9986;SDS011;5033;46.310;11.214;2022-12-10T14:21:31;12.88;;;11.77;;
9986;SDS011;5033;46.310;11.214;2022-12-10T14:24:00;12.75;;;11.55;;
9986;SDS011;5033;46.310;11.214;2022-12-10T14:26:28;12.45;;;11.32;;
9986;SDS011;5033;46.310;11.214;2022-12-10T14:28:57;10.82;;;9.82;;
9986;SDS011;5033;46.310;11.214;2022-12-10T14:31:30;10.18;;;9.38;;
9986;SDS011;5033;46.310;11.214;2022-12-10T14:34:00;9.30;;;8.48;;
9986;SDS011;5033;46.310;11.214;2022-12-10T14:36:30;9.18;;;8.32;;
9986;SDS011;5033;46.310;11.214;2022-12-10T14:39:00;8.98;;;8.18;;
9986;SDS011;5033;46.310;11.214;2022-12-10T14:41:29;8.35;;;7.63;;
9986;SDS011;5033;46.310;11.214;2022-12-10T14:43:57;8.70;;;7.90;;
9986;SDS011;5033;46.310;11.214;2022-12-10T14:46:31;7.55;;;6.95;;
9986;SDS011;5033;46.310;11.214;2022-12-10T14:48:58;8.20;;;7.50;;
9986;SDS011;5033;46.310;11.214;2022-12-10T14:51:26;8.88;;;8.05;;
9986;SDS011;5033;46.310;11.214;2022-12-10T14:53:59;9.63;;;8.73;;
9986;SDS011;5033;46.310;11.214;2022-12-10T14:56:27;8.93;;;8.07;;
9986;SDS011;5033;46.310;11.214;2022-12-10T14:59:01;9.95;;;8.95;;
9986;SDS011;5033;46.310;11.214;2022-12-10T15:01:33;10.32;;;9.32;;
9986;SDS011;5033;46.310;11.214;2022-12-10T15:04:04;10.23;;;9.32;;
9986;SDS011;5033;46.310;11.214;2022-12-10T15:06:37;10.73;;;9.65;;
9986;SDS011;5033;46.310;11.214;2022-12-10T15:09:05;9.95;;;9.07;;
9986;SDS011;5033;46.310;11.214;2022-12-10T15:11:38;9.73;;;8.77;;
9986;SDS011;5033;46.310;11.214;2022-12-10T15:14:05;9.32;;;8.52;;
9986;SDS011;5033;46.310;11.214;2022-12-10T15:16:39;9.20;;;8.30;;
9986;SDS011;5033;46.310;11.214;2022-12-10T15:19:09;9.38;;;8.57;;
9986;SDS011;5033;46.310;11.214;2022-12-10T15:21:43;9.70;;;8.80;;
9986;SDS011;5033;46.310;11.214;2022-12-10T15:24:16;9.60;;;8.80;;
9986;SDS011;5033;46.310;11.214;2022-12-10T15:26:46;10.25;;;9.27;;
9986;SDS011;5033;46.310;11.214;2022-12-10T15:29:15;8.98;;;8.27;;
9986;SDS011;5033;46.310;11.214;2022-12-10T15:31:59;9.10;;;8.30;;
9986;SDS011;5033;46.310;11.214;2022-12-10T15:34:28;8.48;;;7.72;;
9986;SDS011;5033;46.310;11.214;2022-12-10T15:37:00;8.05;;;7.35;;
9986;SDS011;5033;46.310;11.214;2022-12-10T15:39:30;8.73;;;7.88;;
9986;SDS011;5033;46.310;11.214;2022-12-10T15:42:00;8.18;;;7.53;;
9986;SDS011;5033;46.310;11.214;2022-12-10T15:44:31;7.68;;;7.07;;
9986;SDS011;5033;46.310;11.214;2022-12-10T15:47:08;9.88;;;9.05;;